Terminal Aerodrome Forecast
Issued by NWS Sterling, VA

Current Version | Previous Version | Text Only | Print | Product List | Glossary Off
Versions: 1 2 3 4 5 6 7 8 9 10 11 12 13 14 15 16 17 18 19 20

000
FTUS41 KLWX 261743
TAFMRB
TAF
KMRB 261743Z 2618/2718 16011KT P6SM BKN015 BKN025
     FM270000 17009KT P6SM -SHRA SCT025 BKN090
     FM270300 26005KT 5SM -SHRA BR BKN020 OVC090
     FM270600 28005KT 3SM BR BKN090 OVC100
     FM270900 30005KT P6SM BKN100 BKN250
     FM271100 29004KT P6SM FEW130 SCT250=

USA.gov is the U.S. government's official web portal to all federal, state and local government web resources and services.